Time;durP1;ratioP1;P1;durP2;ratioP2;P2;SDS_P1;SDS_P2;PMS_P1;PMS_P2;Temp;Humidity;BMP_temperature;BMP_pressure;BME280_temperature;BME280_humidity;BME280_pressure;Samples;Min_cycle;Max_cycle;Signal;HPM_P1;HPM_P2
2024/01/05 00:01:17;;;;;;;14.93;4.30;;;8.10;99.90;;;;;;5032952;28;20025;-36
2024/01/05 00:03:42;;;;;;;13.57;5.00;;;8.20;99.90;;;;;;5033025;28;20413;-36
2024/01/05 00:06:08;;;;;;;12.30;4.15;;;8.20;99.90;;;;;;5033048;28;20025;-37
2024/01/05 00:08:33;;;;;;;17.08;3.70;;;8.30;99.90;;;;;;5033236;28;20377;-36
2024/01/05 00:10:59;;;;;;;16.50;3.67;;;8.30;99.90;;;;;;5032955;28;20028;-36
2024/01/05 00:13:25;;;;;;;14.32;3.88;;;8.30;99.90;;;;;;5039363;28;20499;-35
2024/01/05 00:15:50;;;;;;;19.67;4.43;;;8.30;99.90;;;;;;5045579;28;20092;-39
2024/01/05 00:18:16;;;;;;;15.90;4.07;;;8.20;99.90;;;;;;5032956;28;20382;-41
2024/01/05 00:20:42;;;;;;;9.82;3.75;;;8.20;99.90;;;;;;5032733;28;20041;-47
2024/01/05 00:23:07;;;;;;;12.05;4.55;;;8.20;99.90;;;;;;5032804;28;20470;-39
2024/01/05 00:25:33;;;;;;;9.27;4.13;;;8.30;99.90;;;;;;5032799;28;20359;-38
2024/01/05 00:27:58;;;;;;;8.35;3.22;;;8.30;99.90;;;;;;5032666;28;20029;-38
2024/01/05 00:30:24;;;;;;;17.23;3.47;;;8.30;99.90;;;;;;5032716;28;20398;-39
2024/01/05 00:32:50;;;;;;;13.93;3.85;;;8.30;99.90;;;;;;5032415;28;20036;-42
2024/01/05 00:35:15;;;;;;;17.90;3.75;;;8.30;99.90;;;;;;5032540;28;20022;-38
2024/01/05 00:37:41;;;;;;;7.80;3.22;;;8.40;99.90;;;;;;5032985;28;20021;-37
2024/01/05 00:40:07;;;;;;;9.18;3.25;;;8.40;99.90;;;;;;5032665;28;20033;-38
2024/01/05 00:42:33;;;;;;;9.60;3.03;;;8.40;99.90;;;;;;5032919;28;20531;-38
2024/01/05 00:44:58;;;;;;;9.90;3.83;;;8.30;99.90;;;;;;5032563;28;20022;-39
2024/01/05 00:47:24;;;;;;;13.80;3.60;;;8.30;99.90;;;;;;5032538;28;20051;-38
2024/01/05 00:49:50;;;;;;;13.25;3.45;;;8.40;99.90;;;;;;5032569;28;20025;-39
2024/01/05 00:52:15;;;;;;;18.38;3.58;;;8.50;99.90;;;;;;5032376;28;20394;-41
2024/01/05 00:54:41;;;;;;;20.73;4.47;;;8.40;99.90;;;;;;5032438;28;20048;-38
2024/01/05 00:57:07;;;;;;;19.40;3.60;;;8.40;99.90;;;;;;5032734;28;20057;-38
2024/01/05 00:59:32;;;;;;;14.93;3.78;;;8.50;99.90;;;;;;5035732;28;20559;-39
2024/01/05 01:01:58;;;;;;;6.13;2.83;;;8.50;99.90;;;;;;5036651;28;20059;-41
2024/01/05 01:04:24;;;;;;;19.08;3.58;;;8.50;99.90;;;;;;5036311;28;20037;-40
2024/01/05 01:06:50;;;;;;;7.63;2.72;;;8.50;99.90;;;;;;5036209;28;20506;-40
2024/01/05 01:09:16;;;;;;;17.25;3.70;;;8.50;99.90;;;;;;5036158;28;20549;-40
2024/01/05 01:11:42;;;;;;;10.13;2.70;;;8.50;99.90;;;;;;5036448;28;20500;-42
2024/01/05 01:14:07;;;;;;;10.75;3.30;;;8.50;99.90;;;;;;5048545;28;20025;-40
2024/01/05 01:16:33;;;;;;;11.70;2.78;;;8.60;99.90;;;;;;5042915;28;20425;-40
2024/01/05 01:18:59;;;;;;;10.77;3.10;;;8.60;99.90;;;;;;5035915;28;20045;-40
2024/01/05 01:21:25;;;;;;;9.55;2.72;;;8.60;99.90;;;;;;5036011;28;20108;-39
2024/01/05 01:23:51;;;;;;;12.23;2.58;;;8.60;99.90;;;;;;5035963;28;20189;-40
2024/01/05 01:26:17;;;;;;;6.20;3.17;;;8.60;99.90;;;;;;5035760;28;20537;-40
2024/01/05 01:28:43;;;;;;;12.68;3.60;;;8.60;99.90;;;;;;5035923;28;20117;-38
2024/01/05 01:31:08;;;;;;;15.27;4.30;;;8.60;99.90;;;;;;5035923;28;20025;-45
2024/01/05 01:33:34;;;;;;;13.25;3.45;;;8.50;99.90;;;;;;5035840;28;20033;-43
2024/01/05 01:36:00;;;;;;;11.65;3.03;;;8.60;99.90;;;;;;5036059;28;20100;-40
2024/01/05 01:38:25;;;;;;;8.45;3.85;;;8.50;99.90;;;;;;5035737;28;20025;-40
2024/01/05 01:40:54;;;;;;;14.32;3.72;;;8.50;99.90;;;;;;5035685;28;20029;-37
2024/01/05 01:43:24;;;;;;;6.60;2.47;;;8.60;99.90;;;;;;5035720;28;20505;-38
2024/01/05 01:45:51;;;;;;;9.93;2.20;;;8.60;99.90;;;;;;5035547;28;20036;-38
2024/01/05 01:48:19;;;;;;;7.43;3.10;;;8.70;99.90;;;;;;5035512;28;20497;-37
2024/01/05 01:50:45;;;;;;;13.23;2.20;;;8.70;99.90;;;;;;5035789;28;20497;-38
2024/01/05 01:53:15;;;;;;;13.82;3.15;;;8.70;99.90;;;;;;5035723;28;20478;-39
2024/01/05 01:55:42;;;;;;;6.53;2.35;;;8.70;99.90;;;;;;5035427;28;20104;-39
2024/01/05 01:58:09;;;;;;;13.48;3.05;;;8.70;99.90;;;;;;5034464;28;20520;-37
2024/01/05 02:00:35;;;;;;;17.13;2.78;;;8.70;99.90;;;;;;5035185;28;20545;-53
2024/01/05 02:03:03;;;;;;;9.52;2.78;;;8.70;99.90;;;;;;5035017;28;20033;-59
2024/01/05 02:05:29;;;;;;;11.55;3.03;;;8.70;99.90;;;;;;5034222;28;20555;-47
2024/01/05 02:07:58;;;;;;;17.38;4.53;;;8.70;99.90;;;;;;5035009;28;20029;-51
2024/01/05 02:10:23;;;;;;;9.73;2.60;;;8.70;99.90;;;;;;5034265;28;20033;-55
2024/01/05 02:12:50;;;;;;;14.43;2.30;;;8.70;99.90;;;;;;5036609;28;20029;-53
2024/01/05 02:15:17;;;;;;;5.55;2.10;;;8.70;99.90;;;;;;5052526;28;20052;-53
2024/01/05 02:17:43;;;;;;;9.07;2.63;;;8.70;99.90;;;;;;5033646;28;20496;-53
2024/01/05 02:20:08;;;;;;;15.23;3.78;;;8.80;99.90;;;;;;5034875;28;20046;-50
2024/01/05 02:22:37;;;;;;;10.77;3.50;;;8.80;99.90;;;;;;5034869;28;20084;-54
2024/01/05 02:25:04;;;;;;;11.65;2.08;;;8.80;99.90;;;;;;5034821;28;20038;-48
2024/01/05 02:27:30;;;;;;;12.43;2.28;;;8.80;99.90;;;;;;5034796;28;20401;-51
2024/01/05 02:29:55;;;;;;;4.47;2.03;;;8.80;99.90;;;;;;5034771;28;20026;-51
2024/01/05 02:32:21;;;;;;;15.73;4.05;;;8.80;99.90;;;;;;5035063;28;20021;-50
2024/01/05 02:34:47;;;;;;;6.88;2.00;;;8.80;99.90;;;;;;5033328;28;20021;-51
2024/01/05 02:37:13;;;;;;;12.07;1.98;;;8.80;99.90;;;;;;5034622;28;20504;-50
2024/01/05 02:39:38;;;;;;;7.72;1.90;;;8.90;99.90;;;;;;5034603;28;20035;-50
2024/01/05 02:42:04;;;;;;;18.13;2.70;;;8.90;99.90;;;;;;5034574;28;20394;-51
2024/01/05 02:44:30;;;;;;;10.25;2.38;;;8.90;99.90;;;;;;5034580;28;20030;-48
2024/01/05 02:46:56;;;;;;;10.30;1.77;;;8.90;99.90;;;;;;5034480;28;20433;-60
2024/01/05 02:49:21;;;;;;;14.38;2.05;;;8.90;99.90;;;;;;5034450;28;20261;-52
2024/01/05 02:51:47;;;;;;;15.52;2.05;;;8.90;99.90;;;;;;5034489;28;20385;-50
2024/01/05 02:54:13;;;;;;;6.43;1.95;;;8.90;99.90;;;;;;5034315;28;20036;-49
2024/01/05 02:56:39;;;;;;;11.65;1.48;;;8.90;99.90;;;;;;5034274;28;20037;-52
2024/01/05 02:59:06;;;;;;;14.68;1.80;;;9.00;99.90;;;;;;5033013;28;20033;-52
2024/01/05 03:01:32;;;;;;;8.13;1.60;;;9.00;99.90;;;;;;5034473;28;20424;-52
2024/01/05 03:04:00;;;;;;;4.00;1.45;;;9.10;99.90;;;;;;5034116;28;20079;-50
2024/01/05 03:06:26;;;;;;;9.15;1.27;;;9.10;99.90;;;;;;5034091;28;20486;-50
2024/01/05 03:08:51;;;;;;;15.85;2.10;;;9.10;99.90;;;;;;5032637;28;20113;-50
2024/01/05 03:11:17;;;;;;;8.73;2.53;;;9.10;99.90;;;;;;5033928;28;20488;-50
2024/01/05 03:13:43;;;;;;;7.28;1.50;;;9.10;99.90;;;;;;5042833;28;20021;-49
2024/01/05 03:16:08;;;;;;;1.95;1.17;;;9.10;99.90;;;;;;5044127;28;20030;-50
2024/01/05 03:18:34;;;;;;;9.55;2.03;;;9.10;99.90;;;;;;5033673;28;20124;-51
2024/01/05 03:21:00;;;;;;;12.95;1.45;;;9.10;99.90;;;;;;5033817;28;20088;-50
2024/01/05 03:23:25;;;;;;;9.98;1.35;;;9.10;99.90;;;;;;5033832;28;20029;-51
2024/01/05 03:25:52;;;;;;;8.02;1.58;;;9.20;99.90;;;;;;5033575;28;20049;-51
2024/01/05 03:28:17;;;;;;;12.85;1.90;;;9.30;99.90;;;;;;5033934;28;20486;-55
2024/01/05 03:30:43;;;;;;;5.07;1.33;;;9.30;99.90;;;;;;5033692;28;20032;-49
2024/01/05 03:33:09;;;;;;;7.53;1.15;;;9.40;99.90;;;;;;5033571;28;20478;-51
2024/01/05 03:35:36;;;;;;;17.95;2.30;;;9.40;99.90;;;;;;5033651;28;20496;-50
2024/01/05 03:38:02;;;;;;;4.65;0.98;;;9.40;99.90;;;;;;5033592;28;20057;-52
2024/01/05 03:40:28;;;;;;;7.78;1.55;;;9.50;99.90;;;;;;5033567;28;20397;-49
2024/01/05 03:42:54;;;;;;;9.65;1.45;;;9.40;99.90;;;;;;5033427;28;20105;-37
2024/01/05 03:45:19;;;;;;;4.22;1.40;;;9.40;99.90;;;;;;5033465;28;20026;-37
2024/01/05 03:47:45;;;;;;;17.27;2.72;;;9.50;99.90;;;;;;5033325;28;20048;-37
2024/01/05 03:50:11;;;;;;;17.25;1.63;;;9.40;99.90;;;;;;5033380;28;20382;-37
2024/01/05 03:52:36;;;;;;;7.38;1.60;;;9.40;99.90;;;;;;5033389;28;20390;-36
2024/01/05 03:55:03;;;;;;;6.85;1.13;;;9.30;99.90;;;;;;5033296;28;20363;-38
2024/01/05 03:57:30;;;;;;;7.45;2.17;;;9.20;99.90;;;;;;5033465;28;20033;-37
2024/01/05 03:59:55;;;;;;;7.45;1.45;;;9.20;99.90;;;;;;5033059;28;20493;-40
2024/01/05 04:02:21;;;;;;;4.72;0.98;;;9.20;99.90;;;;;;5033172;28;20112;-38
2024/01/05 04:04:47;;;;;;;9.57;2.20;;;9.30;99.90;;;;;;5033137;28;20478;-38
2024/01/05 04:07:12;;;;;;;9.35;1.30;;;9.30;99.90;;;;;;5033013;28;20080;-37
2024/01/05 04:09:38;;;;;;;11.43;1.52;;;9.30;99.90;;;;;;5032191;28;20021;-40
2024/01/05 04:12:04;;;;;;;11.15;1.27;;;9.20;99.90;;;;;;5032979;28;20111;-38
2024/01/05 04:14:30;;;;;;;5.22;1.30;;;9.30;99.90;;;;;;5048434;28;20379;-37
2024/01/05 04:16:56;;;;;;;3.35;1.02;;;9.30;99.90;;;;;;5036515;28;20040;-37
2024/01/05 04:19:22;;;;;;;10.48;1.58;;;9.30;99.90;;;;;;5032828;28;20041;-38
2024/01/05 04:21:48;;;;;;;7.80;1.40;;;9.20;99.90;;;;;;5032932;28;20029;-39
2024/01/05 04:24:14;;;;;;;9.15;1.42;;;9.20;99.90;;;;;;5033208;28;20026;-36
2024/01/05 04:26:40;;;;;;;12.95;1.40;;;9.30;99.90;;;;;;5032780;28;20040;-36
2024/01/05 04:29:06;;;;;;;6.40;1.27;;;9.30;99.90;;;;;;5032855;28;20052;-38
2024/01/05 04:31:31;;;;;;;8.50;1.10;;;9.30;99.90;;;;;;5032769;28;20158;-49
2024/01/05 04:33:57;;;;;;;9.20;1.50;;;9.30;99.90;;;;;;5036798;28;20029;-39
2024/01/05 04:36:23;;;;;;;12.10;1.33;;;9.20;99.90;;;;;;5039593;28;20021;-43
2024/01/05 04:38:49;;;;;;;3.67;1.05;;;9.20;99.90;;;;;;5039310;28;20025;-38
2024/01/05 04:41:15;;;;;;;12.80;1.48;;;9.30;99.90;;;;;;5039294;28;20025;-37
2024/01/05 04:43:43;;;;;;;4.65;0.90;;;9.30;99.90;;;;;;5039266;28;20365;-38
2024/01/05 04:46:08;;;;;;;5.05;1.00;;;9.30;99.90;;;;;;5039591;28;20478;-36
2024/01/05 04:48:34;;;;;;;3.22;0.85;;;9.30;99.90;;;;;;5039473;28;20109;-37
2024/01/05 04:51:01;;;;;;;8.50;0.75;;;9.30;99.90;;;;;;5039087;28;20032;-37
2024/01/05 04:53:26;;;;;;;4.32;0.90;;;9.30;99.90;;;;;;5037891;28;20026;-37
2024/01/05 04:55:52;;;;;;;3.53;0.73;;;9.30;99.90;;;;;;5039494;28;20104;-39
2024/01/05 04:58:18;;;;;;;4.40;1.48;;;9.40;99.90;;;;;;5039138;28;20030;-37
2024/01/05 05:00:44;;;;;;;9.15;2.50;;;9.30;99.90;;;;;;5039146;28;20029;-38
2024/01/05 05:03:10;;;;;;;4.85;1.45;;;9.30;99.90;;;;;;5039091;28;20501;-39
2024/01/05 05:05:36;;;;;;;9.80;1.02;;;9.40;99.90;;;;;;5039047;28;20088;-39
2024/01/05 05:08:02;;;;;;;4.25;0.82;;;9.40;99.90;;;;;;5038876;28;20481;-37
2024/01/05 05:10:28;;;;;;;9.93;1.52;;;9.40;99.90;;;;;;5037826;28;20029;-38
2024/01/05 05:12:54;;;;;;;2.05;0.43;;;9.30;99.90;;;;;;5041474;28;20397;-35
2024/01/05 05:15:19;;;;;;;2.60;1.08;;;9.20;99.90;;;;;;5055830;28;20036;-36
2024/01/05 05:17:45;;;;;;;8.63;1.20;;;9.30;99.90;;;;;;5038936;28;20083;-36
2024/01/05 05:20:12;;;;;;;5.35;0.82;;;9.30;99.90;;;;;;5038810;28;20521;-35
2024/01/05 05:22:38;;;;;;;5.28;1.17;;;9.30;99.90;;;;;;5037642;28;20025;-37
2024/01/05 05:25:05;;;;;;;2.67;1.02;;;9.40;99.90;;;;;;5038987;28;20482;-36
2024/01/05 05:27:31;;;;;;;5.72;1.00;;;9.30;99.90;;;;;;5038785;28;20514;-35
2024/01/05 05:29:58;;;;;;;6.63;1.08;;;9.40;99.90;;;;;;5039156;28;20405;-35
2024/01/05 05:32:24;;;;;;;8.88;1.17;;;9.40;99.90;;;;;;5038861;28;20100;-36
2024/01/05 05:34:50;;;;;;;6.07;1.10;;;9.30;99.90;;;;;;5038848;28;20029;-36
2024/01/05 05:37:16;;;;;;;2.22;0.85;;;9.30;99.90;;;;;;5038928;28;20030;-36
2024/01/05 05:39:42;;;;;;;6.43;1.02;;;9.30;99.90;;;;;;5039002;28;20025;-39
2024/01/05 05:42:08;;;;;;;3.60;0.90;;;9.20;99.90;;;;;;5037375;28;20555;-36
2024/01/05 05:44:33;;;;;;;7.97;1.17;;;9.20;99.90;;;;;;5035672;28;20063;-36
2024/01/05 05:46:59;;;;;;;3.95;0.82;;;9.10;99.90;;;;;;5035331;28;20025;-37
2024/01/05 05:49:25;;;;;;;5.47;1.52;;;9.20;99.90;;;;;;5035538;28;20025;-35
2024/01/05 05:51:50;;;;;;;7.57;0.73;;;9.10;99.90;;;;;;5035539;28;20421;-35
2024/01/05 05:54:16;;;;;;;3.20;0.90;;;9.10;99.90;;;;;;5035509;28;20105;-36
2024/01/05 05:56:42;;;;;;;10.88;2.17;;;9.00;99.90;;;;;;5034186;28;20132;-36
2024/01/05 05:59:08;;;;;;;9.38;1.48;;;9.10;99.90;;;;;;5035297;28;20108;-37
2024/01/05 06:01:34;;;;;;;2.63;1.15;;;9.10;99.90;;;;;;5035281;28;20112;-37
2024/01/05 06:03:59;;;;;;;6.72;0.80;;;9.10;99.90;;;;;;5035325;28;20132;-36
2024/01/05 06:06:25;;;;;;;4.57;0.77;;;9.10;99.90;;;;;;5035218;28;20025;-37
2024/01/05 06:08:51;;;;;;;2.95;0.93;;;9.10;99.90;;;;;;5035505;28;20053;-37
2024/01/05 06:11:18;;;;;;;3.25;1.08;;;9.20;99.90;;;;;;5035104;28;20023;-43
2024/01/05 06:13:44;;;;;;;8.13;0.90;;;9.20;99.90;;;;;;5044158;28;20021;-36
2024/01/05 06:16:11;;;;;;;4.95;1.00;;;9.10;99.90;;;;;;5044825;28;20041;-36
2024/01/05 06:18:37;;;;;;;1.40;0.98;;;9.10;99.90;;;;;;5034844;28;20037;-37
2024/01/05 06:21:03;;;;;;;8.60;0.90;;;9.10;99.90;;;;;;5035308;28;20482;-37
2024/01/05 06:23:30;;;;;;;5.55;1.60;;;9.10;99.90;;;;;;5035013;28;20132;-36
2024/01/05 06:25:56;;;;;;;6.88;1.30;;;9.10;99.90;;;;;;5035204;28;20053;-37
2024/01/05 06:28:21;;;;;;;6.40;2.22;;;9.10;99.90;;;;;;5034821;28;20494;-37
2024/01/05 06:30:47;;;;;;;2.92;0.88;;;9.00;99.90;;;;;;5035112;28;20053;-38
2024/01/05 06:33:13;;;;;;;2.33;0.65;;;9.00;99.90;;;;;;5035214;28;20018;-39
2024/01/05 06:35:39;;;;;;;2.85;0.68;;;9.00;99.90;;;;;;5034764;28;20079;-40
2024/01/05 06:38:04;;;;;;;4.93;0.90;;;8.80;99.90;;;;;;5034961;28;20040;-38
2024/01/05 06:40:30;;;;;;;5.28;0.60;;;8.80;99.90;;;;;;5034689;28;20033;-37
2024/01/05 06:42:57;;;;;;;11.57;0.98;;;8.80;99.90;;;;;;5034586;28;20032;-39
2024/01/05 06:45:23;;;;;;;5.70;1.00;;;8.70;99.90;;;;;;5034573;28;20025;-40
2024/01/05 06:47:49;;;;;;;5.68;1.33;;;8.70;99.90;;;;;;5034437;28;20367;-38
2024/01/05 06:50:14;;;;;;;6.80;0.88;;;8.70;99.90;;;;;;5034319;28;20080;-39
2024/01/05 06:52:40;;;;;;;8.35;1.10;;;8.70;99.90;;;;;;5034442;28;20053;-42
2024/01/05 06:55:06;;;;;;;1.70;0.90;;;8.70;99.90;;;;;;5034356;28;20117;-37
2024/01/05 06:57:35;;;;;;;5.80;1.02;;;8.70;99.90;;;;;;5033056;28;20470;-38
2024/01/05 07:00:05;;;;;;;4.32;0.73;;;8.60;99.90;;;;;;5034293;28;20485;-38
2024/01/05 07:02:31;;;;;;;3.63;0.93;;;8.50;99.90;;;;;;5034477;28;20531;-39
2024/01/05 07:04:57;;;;;;;5.28;1.00;;;8.50;99.90;;;;;;5034456;28;20398;-37
2024/01/05 07:07:23;;;;;;;1.20;0.35;;;8.40;99.90;;;;;;5033930;28;20030;-44
2024/01/05 07:09:48;;;;;;;1.75;0.20;;;8.30;99.90;;;;;;5034310;28;20064;-37
2024/01/05 07:12:14;;;;;;;0.17;0.10;;;8.20;99.90;;;;;;5034254;28;20470;-42
2024/01/05 07:14:40;;;;;;;1.00;0.38;;;8.10;99.90;;;;;;5033969;28;20470;-37
2024/01/05 07:17:06;;;;;;;1.95;0.73;;;8.00;99.90;;;;;;5033899;28;20033;-38
2024/01/05 07:19:31;;;;;;;0.13;0.08;;;8.00;99.90;;;;;;5033716;28;20050;-37
2024/01/05 07:21:57;;;;;;;0.57;0.32;;;7.90;99.90;;;;;;5034159;28;20159;-53
2024/01/05 07:24:23;;;;;;;0.10;0.00;;;7.90;99.90;;;;;;5033728;28;20030;-49
2024/01/05 07:26:48;;;;;;;4.80;0.45;;;7.90;99.90;;;;;;5033696;28;20057;-55
2024/01/05 07:29:14;;;;;;;3.40;0.20;;;7.80;99.90;;;;;;5034011;28;20093;-55
2024/01/05 07:31:40;;;;;;;0.10;0.10;;;7.80;99.90;;;;;;5033956;28;20040;-53
2024/01/05 07:34:07;;;;;;;0.32;0.30;;;7.80;99.90;;;;;;5033677;28;20021;-50
2024/01/05 07:36:32;;;;;;;0.25;0.20;;;7.80;99.90;;;;;;5032302;28;20056;-51
2024/01/05 07:39:01;;;;;;;0.10;0.10;;;7.70;99.90;;;;;;5033591;28;20502;-52
2024/01/05 07:41:27;;;;;;;0.32;0.10;;;7.70;99.90;;;;;;5033638;28;20478;-53
2024/01/05 07:43:53;;;;;;;0.40;0.30;;;7.70;99.90;;;;;;5033468;28;20101;-49
2024/01/05 07:46:19;;;;;;;0.30;0.20;;;7.60;99.90;;;;;;5033419;28;20485;-53
2024/01/05 07:48:46;;;;;;;0.38;0.38;;;7.60;99.90;;;;;;5033313;28;20043;-56
2024/01/05 07:51:13;;;;;;;3.38;0.20;;;7.60;99.90;;;;;;5033370;28;20057;-49
2024/01/05 07:53:39;;;;;;;0.75;0.45;;;7.60;99.90;;;;;;5033285;28;20501;-51
2024/01/05 07:56:05;;;;;;;0.88;0.30;;;7.60;99.90;;;;;;5033283;28;20037;-54
2024/01/05 07:58:31;;;;;;;1.30;0.45;;;7.60;99.90;;;;;;5033057;28;20033;-52
2024/01/05 08:00:57;;;;;;;0.63;0.55;;;7.60;99.90;;;;;;5033171;28;20493;-52
2024/01/05 08:03:23;;;;;;;1.65;0.30;;;7.60;99.90;;;;;;5033436;28;20025;-52
2024/01/05 08:05:49;;;;;;;0.43;0.30;;;7.60;99.90;;;;;;5033384;28;20036;-52
2024/01/05 08:08:15;;;;;;;4.45;0.40;;;7.60;99.90;;;;;;5032718;28;20056;-53
2024/01/05 08:10:40;;;;;;;0.82;0.30;;;7.60;99.90;;;;;;5032813;28;20026;-51
2024/01/05 08:13:06;;;;;;;0.93;0.40;;;7.60;99.90;;;;;;5037237;28;20028;-54
2024/01/05 08:15:32;;;;;;;5.05;0.28;;;7.50;99.90;;;;;;5039936;28;20020;-53
2024/01/05 08:17:58;;;;;;;0.20;0.20;;;7.50;99.90;;;;;;5033197;28;20502;-53
2024/01/05 08:20:24;;;;;;;2.83;0.30;;;7.50;99.90;;;;;;5031504;28;20144;-53
2024/01/05 08:22:50;;;;;;;1.98;0.32;;;7.50;99.90;;;;;;5033241;28;20422;-67
2024/01/05 08:25:16;;;;;;;3.47;0.40;;;7.50;99.90;;;;;;5032872;28;20390;-50
2024/01/05 08:27:42;;;;;;;1.20;0.52;;;7.50;99.90;;;;;;5031486;28;20044;-52
2024/01/05 08:30:12;;;;;;;0.38;0.20;;;7.50;99.90;;;;;;5032813;28;20025;-53
2024/01/05 08:32:38;;;;;;;0.57;0.32;;;7.50;99.90;;;;;;5031456;28;20030;-52
2024/01/05 08:35:07;;;;;;;0.65;0.60;;;7.50;99.90;;;;;;5032802;28;20017;-53
2024/01/05 08:37:33;;;;;;;3.80;0.47;;;7.50;99.90;;;;;;5032723;28;20057;-52
2024/01/05 08:39:59;;;;;;;0.50;0.40;;;7.50;99.90;;;;;;5032697;28;20026;-53
2024/01/05 08:42:24;;;;;;;2.83;0.80;;;7.50;99.90;;;;;;5032731;28;20033;-53
2024/01/05 08:44:53;;;;;;;0.55;0.55;;;7.50;99.90;;;;;;5032626;28;20033;-52
2024/01/05 08:47:18;;;;;;;1.23;0.70;;;7.50;99.90;;;;;;5032598;28;20037;-52
2024/01/05 08:49:44;;;;;;;1.95;0.93;;;7.50;99.90;;;;;;5032453;28;20014;-53
2024/01/05 08:52:10;;;;;;;1.52;0.45;;;7.50;99.90;;;;;;5032808;28;20151;-51
2024/01/05 08:54:40;;;;;;;2.78;0.63;;;7.50;99.90;;;;;;5032560;28;20022;-53
2024/01/05 08:57:09;;;;;;;0.55;0.55;;;7.50;99.90;;;;;;5032534;28;20022;-52
2024/01/05 08:59:37;;;;;;;3.13;1.08;;;7.40;99.90;;;;;;5032493;28;20030;-56
2024/01/05 09:02:03;;;;;;;;;;;7.40;99.90;;;;;;5032980;28;20032;-40
2024/01/05 09:04:29;;;;;;;0.40;0.40;;;7.30;99.90;;;;;;5032470;28;20008;-39
2024/01/05 09:06:58;;;;;;;0.80;0.80;;;7.30;99.90;;;;;;5032218;28;20029;-40
2024/01/05 09:09:24;;;;;;;0.70;0.70;;;7.30;99.90;;;;;;5031297;28;20036;-40
2024/01/05 09:11:50;;;;;;;0.80;0.80;;;7.20;99.90;;;;;;5032316;28;20029;-43
2024/01/05 09:14:15;;;;;;;2.35;0.95;;;7.20;99.90;;;;;;5045865;28;20390;-38
2024/01/05 09:16:41;;;;;;;3.65;1.05;;;7.20;99.90;;;;;;5037893;28;20056;-39
2024/01/05 09:19:07;;;;;;;1.00;0.90;;;7.20;99.90;;;;;;5033018;28;20433;-38
2024/01/05 09:21:33;;;;;;;1.85;1.17;;;7.20;99.90;;;;;;5034923;28;20024;-37
2024/01/05 09:23:59;;;;;;;4.63;1.25;;;7.20;99.90;;;;;;5036019;28;20457;-38
2024/01/05 09:26:25;;;;;;;1.20;1.05;;;7.20;99.90;;;;;;5036048;28;20473;-38
2024/01/05 09:28:50;;;;;;;2.53;1.00;;;7.20;99.90;;;;;;5035884;28;20025;-36
2024/01/05 09:31:16;;;;;;;3.75;1.40;;;7.10;99.90;;;;;;5035932;28;20025;-37
2024/01/05 09:33:43;;;;;;;2.30;1.38;;;7.10;99.90;;;;;;5035906;28;20105;-36
2024/01/05 09:36:08;;;;;;;6.57;1.60;;;7.20;99.90;;;;;;5035855;28;20022;-37
2024/01/05 09:38:36;;;;;;;1.85;1.75;;;7.10;99.90;;;;;;5035769;28;20025;-36
2024/01/05 09:41:02;;;;;;;3.30;1.48;;;7.10;99.90;;;;;;5035541;28;20032;-38
2024/01/05 09:43:27;;;;;;;1.75;1.30;;;7.10;99.90;;;;;;5035691;28;20017;-36
2024/01/05 09:45:55;;;;;;;1.30;1.20;;;7.00;99.90;;;;;;5035883;28;20025;-36
2024/01/05 09:48:22;;;;;;;2.20;1.42;;;7.00;99.90;;;;;;5035800;28;20525;-37
2024/01/05 09:50:52;;;;;;;1.52;1.17;;;7.00;99.90;;;;;;5034100;28;20021;-36
2024/01/05 09:53:19;;;;;;;2.85;1.40;;;7.00;99.90;;;;;;5035462;28;20025;-36
2024/01/05 09:55:49;;;;;;;4.57;1.67;;;6.90;99.90;;;;;;5035670;28;20521;-36
2024/01/05 09:58:16;;;;;;;4.97;2.13;;;7.00;99.90;;;;;;5035552;28;20033;-36
2024/01/05 10:00:45;;;;;;;1.57;1.47;;;6.90;99.90;;;;;;5035424;28;20390;-37
2024/01/05 10:03:17;;;;;;;1.48;1.35;;;6.90;99.90;;;;;;5035250;28;20018;-36
2024/01/05 10:05:43;;;;;;;1.10;1.00;;;7.00;99.90;;;;;;5035601;28;20497;-36
2024/01/05 10:08:09;;;;;;;1.45;1.15;;;7.00;99.90;;;;;;5035442;28;20099;-36
2024/01/05 10:10:48;;;;;;;7.30;1.60;;;7.00;99.90;;;;;;5035302;28;20025;-35
2024/01/05 10:13:17;;;;;;;1.25;1.13;;;6.90;99.90;;;;;;5038279;28;20021;-37
2024/01/05 10:16:02;;;;;;;1.60;1.30;;;6.80;99.90;;;;;;5034993;28;20025;-41
2024/01/05 10:18:29;;;;;;;7.50;2.10;;;6.90;99.90;;;;;;5035170;28;20504;-37
2024/01/05 10:20:55;;;;;;;4.45;1.60;;;6.80;99.90;;;;;;5035175;28;20044;-36
2024/01/05 10:23:21;;;;;;;2.05;1.60;;;6.90;99.90;;;;;;5034995;28;20163;-36
2024/01/05 10:25:47;;;;;;;3.45;1.73;;;6.80;99.90;;;;;;5034952;28;20445;-37
2024/01/05 10:28:32;;;;;;;2.50;1.85;;;6.80;99.90;;;;;;5035043;28;20470;-36
2024/01/05 10:31:14;;;;;;;2.63;1.95;;;6.80;99.90;;;;;;5034251;28;20466;-37
2024/01/05 10:33:48;;;;;;;4.43;1.80;;;6.80;99.90;;;;;;5034821;28;20026;-37
2024/01/05 10:36:20;;;;;;;2.30;2.08;;;6.80;99.90;;;;;;5034752;28;20029;-36
2024/01/05 10:38:47;;;;;;;2.30;1.95;;;6.90;99.90;;;;;;5034732;28;20029;-38
2024/01/05 10:41:13;;;;;;;4.32;2.47;;;7.00;99.90;;;;;;5034571;28;20033;-37
2024/01/05 10:43:41;;;;;;;5.07;2.22;;;7.00;99.90;;;;;;5034640;28;20418;-39
2024/01/05 10:46:10;;;;;;;2.45;2.10;;;7.00;99.90;;;;;;5034837;28;20021;-38
2024/01/05 10:48:37;;;;;;;2.90;2.05;;;7.00;99.90;;;;;;5034066;28;20027;-34
2024/01/05 10:51:03;;;;;;;4.97;2.72;;;7.00;99.90;;;;;;5033564;28;20509;-35
2024/01/05 10:53:29;;;;;;;2.50;2.30;;;7.00;99.90;;;;;;5034617;28;20380;-36
2024/01/05 10:55:58;;;;;;;3.10;2.58;;;7.00;99.90;;;;;;5033204;28;20034;-37
2024/01/05 10:58:24;;;;;;;3.17;2.40;;;7.00;99.90;;;;;;5034294;28;20427;-36
2024/01/05 11:00:52;;;;;;;2.88;2.65;;;7.00;99.90;;;;;;5034302;28;20072;-36
2024/01/05 11:03:24;;;;;;;3.63;2.85;;;6.90;99.90;;;;;;5034175;28;20477;-35
2024/01/05 11:05:51;;;;;;;3.40;2.80;;;6.90;99.90;;;;;;5033965;28;20386;-36
2024/01/05 11:08:19;;;;;;;3.45;2.85;;;7.00;99.90;;;;;;5034245;28;20029;-35
2024/01/05 11:11:04;;;;;;;7.65;2.80;;;7.00;99.90;;;;;;5033996;28;20386;-35
2024/01/05 11:14:05;;;;;;;3.30;2.75;;;7.00;99.90;;;;;;5041255;28;20031;-38
2024/01/05 11:16:49;;;;;;;3.67;3.20;;;7.00;99.90;;;;;;5039550;28;20021;-36
2024/01/05 11:19:32;;;;;;;3.50;2.75;;;7.00;99.90;;;;;;5033719;28;20494;-36
2024/01/05 11:22:12;;;;;;;3.42;2.80;;;7.10;99.90;;;;;;5033752;28;20076;-36
2024/01/05 11:24:39;;;;;;;3.67;2.58;;;7.00;99.90;;;;;;5033724;28;20536;-37
2024/01/05 11:27:26;;;;;;;2.97;2.67;;;7.00;99.90;;;;;;5033721;28;20104;-36
2024/01/05 11:29:53;;;;;;;2.85;2.50;;;7.00;99.90;;;;;;5033651;28;20029;-35
2024/01/05 11:32:31;;;;;;;2.40;2.20;;;7.10;99.90;;;;;;5033959;28;20022;-37
2024/01/05 11:34:57;;;;;;;2.67;2.38;;;7.10;99.90;;;;;;5033617;28;20367;-37
2024/01/05 11:37:31;;;;;;;2.67;2.47;;;7.10;99.90;;;;;;5033549;28;20034;-36
2024/01/05 11:40:03;;;;;;;2.88;2.53;;;7.10;99.90;;;;;;5033426;28;20056;-35
2024/01/05 11:42:29;;;;;;;3.50;2.45;;;7.10;99.90;;;;;;5032696;28;20088;-38
2024/01/05 11:44:56;;;;;;;5.40;2.08;;;7.10;99.90;;;;;;5033250;28;20081;-36
2024/01/05 11:47:44;;;;;;;3.17;2.23;;;7.10;99.90;;;;;;5032108;28;20501;-39
2024/01/05 11:50:32;;;;;;;3.17;2.45;;;7.10;99.90;;;;;;5033550;28;20038;-37
2024/01/05 11:53:11;;;;;;;2.08;1.90;;;7.10;99.90;;;;;;5033233;28;20482;-37
2024/01/05 11:55:40;;;;;;;3.70;2.60;;;7.10;99.90;;;;;;5033337;28;20504;-38
2024/01/05 11:58:12;;;;;;;4.95;2.65;;;7.20;99.90;;;;;;5033236;28;20030;-39
2024/01/05 12:00:43;;;;;;;3.17;2.67;;;7.10;99.90;;;;;;5033300;28;20040;-37
2024/01/05 12:03:09;;;;;;;3.30;3.00;;;7.00;99.90;;;;;;5033455;28;20038;-37
2024/01/05 12:05:34;;;;;;;2.60;2.40;;;7.10;99.90;;;;;;5033397;28;20025;-37
2024/01/05 12:08:00;;;;;;;2.80;2.60;;;7.00;99.90;;;;;;5033200;28;20033;-37
2024/01/05 12:10:30;;;;;;;3.92;2.85;;;7.10;99.90;;;;;;5033195;28;20143;-36
2024/01/05 12:12:56;;;;;;;4.53;3.05;;;7.10;99.90;;;;;;5035286;28;20486;-37
2024/01/05 12:15:25;;;;;;;2.53;2.33;;;7.20;99.90;;;;;;5048064;28;20105;-37
2024/01/05 12:18:08;;;;;;;3.28;2.20;;;7.10;99.90;;;;;;5032938;28;20616;-37
2024/01/05 12:20:34;;;;;;;4.88;3.15;;;7.10;99.90;;;;;;5032753;28;20049;-42
2024/01/05 12:23:00;;;;;;;3.08;2.78;;;7.20;99.90;;;;;;5032881;28;20083;-35
2024/01/05 12:25:26;;;;;;;4.13;2.47;;;7.20;99.90;;;;;;5032754;28;20033;-36
2024/01/05 12:27:52;;;;;;;3.38;2.83;;;7.20;99.90;;;;;;5032666;28;20391;-35
2024/01/05 12:30:20;;;;;;;6.22;2.45;;;7.30;99.90;;;;;;5032657;28;20108;-34
2024/01/05 12:32:47;;;;;;;6.38;3.42;;;7.40;99.90;;;;;;5032731;28;20116;-36
2024/01/05 12:35:13;;;;;;;4.57;2.83;;;7.40;99.90;;;;;;5032785;28;20064;-36
2024/01/05 12:37:51;;;;;;;5.05;3.08;;;7.40;99.90;;;;;;5032719;28;20065;-34
2024/01/05 12:40:23;;;;;;;6.47;3.42;;;7.50;99.90;;;;;;5032995;28;20482;-36
2024/01/05 12:42:51;;;;;;;4.07;3.65;;;7.60;99.90;;;;;;5032865;28;20486;-38
2024/01/05 12:45:18;;;;;;;;;;;7.60;99.90;;;;;;5031761;28;20034;-36
2024/01/05 12:47:44;;;;;;;9.80;4.40;;;7.70;99.90;;;;;;5032466;28;19947;-34
2024/01/05 12:50:23;;;;;;;7.93;4.97;;;7.90;99.90;;;;;;5032679;28;20474;-38
2024/01/05 12:52:49;;;;;;;11.15;4.90;;;7.90;99.90;;;;;;5032590;28;20437;-39
2024/01/05 12:55:34;;;;;;;6.75;4.32;;;8.00;99.90;;;;;;5035321;28;20026;-38